Atlantic - Newfoundland: Past 24 Hour Conditions

 

St. Anthony Airport

07:30 PM NDT 25 July 2014
This table is a summary of hourly weather conditions for the past 24 hours.
Date / Time
(NDT)
Wind(knots) Conditions Visibility(km) Pressure(kPa) Air tempC) Relative humidity(%) Dew pointC)
25 July 2014
19:30 SW 13 Sunny 16 100.6 18 59 10
18:30 WSW 10 Sunny 16 100.6 19 61 11
17:30 WSW 9 Sunny 16 100.6 20 54 10
16:30 WSW 12 gust 17 Sunny 16 100.6 21 49 10
15:30 W 3 Mainly Sunny 16 100.6 22 56 13
14:30 WNW 5 Partly Cloudy 16 100.6 21 62 13
13:30 SE 5 Mainly Sunny 16 100.7 21 67 14
12:30 SE 4 Sunny 16 100.7 18 72 13
11:30 ESE 6 Sunny 16 100.7 18 66 12
10:30 ESE 9 Sunny 16 100.8 17 75 13
9:30 SE 6 Mostly Cloudy 16 100.8 17 76 13
8:30 SSE 3 Partly Cloudy 16 100.8 16 69 11
7:30 calm Mostly Cloudy 16 100.8 14 83 12
6:30 SW 4 Cloudy 16 100.8 14 79 11
5:30 SW 4 Mainly Sunny 16 100.8 14 80 11
4:30 S 4 Mostly Cloudy 16 100.8 14 82 11
3:30 SSE 5 Cloudy 16 100.8 14 85 12
2:30 SSE 6 Mostly Cloudy 16 100.8 14 85 12
1:30 SSE 5 Cloudy 16 100.9 13 89 12
0:30 SSW 5 Partly Cloudy 16 100.8 15 79 11
24 July 2014
23:30 SW 6 Partly Cloudy 16 100.8 16 78 12
22:30 WSW 8 Partly Cloudy 16 100.8 16 79 12
21:30 SW 8 Mostly Cloudy 16 100.7 17 72 12
20:30 SW 10 Sunny 16 100.7 18 63 11
19:30 SW 10 Sunny 16 100.7 19 58 11
 
Map of Atlantic - Newfoundland marine weather areas Southwestern Grand Banks - 44138 Banquereau - 44139 Tail of the Bank - 44140 Nickerson Bank - 44251 Northeast Burgeo Bank - 44255 Blanc-Sablon Airport Cap Whittle Chevery Natashquan Airport Heath Point Miscou Island Grand Étang Ingonish Beach North Mountain St.Paul Island J.A. Douglas McCurdy Sydney Airport Charlottetown Airport East Point North Cape Argentia Bonavista Burgeo Cape Race Corner Brook Daniel's Harbour Englee Ferolle Point La Scie Port aux Basques Rocky Harbour Sagona Island St. Anthony Airport St. John's Int'l Airport St. Lawrence Stephenville Airport Twillingate Winterland Wreckhouse Cartwright Airport Mary's Harbour Grates Cove Pool's Island Marticot Island Long Pond Îles de la Madeleine Airport
Legend: buoyBuoy land stationLand Station